San Carlos, CA

10:53 PM PST on December 20, 2014 (GMT -0800)
Elizabethville | Change Station
CLOSE
Current Station
Personal Weather Station
Location: San Carlos, CA
Elevation: 167 ft
Nearby Weather Stations
Active Advisory: Coastal Flood Advisory

Elev 167 ft 37.50 °N, 122.26 °W | Updated 5 minutes ago

Overcast
Overcast
55.9 °F
Feels Like 55.9 °F
N
0.0
Wind Variable Wind from North

Today
High -- | Low -- °F
--% Chance of Precip.
Yesterday
High -- | Low -- °F
Precip. -- in
7:19 AM 4:54 PM
Waning Crescent, 1% visible
Pressure 30.27 in
Visibility 10.0 miles
Clouds Overcast 1700 ft
Dew Point 55 °F
Humidity 96%
Rainfall 0.02 in
Snow Depth Not available.
UV 0 out of 12
Pollen 4.00 out of 12
Air Quality Not available.
Flu Activity Not available.
METAR KSQL 210635Z AUTO 19004KT 10SM OVC017 15/12 A3027 RMK AO2

More Conditions Fewer Conditions

Pressure 30.27 in
Visibility 10.0 miles
Clouds Overcast 1700 ft
Dew Point 55 °F
Humidity 96%
Rainfall 0.02 in
Snow Depth Not available.
UV 0 out of 12
Pollen 4.00 out of 12
Air Quality Not available.
Flu Activity Not available.
METAR KSQL 210635Z AUTO 19004KT 10SM OVC017 15/12 A3027 RMK AO2

More Conditions Fewer Conditions

10-Day Weather Forecast

Almanac

Astronomy

Dec. 20, 2014 Rise Set
Actual Time
Civil Twilight
Nautical Twilight
Astronomical Twilight
Moon
Length of Visible Light
Length of Day
Tomorrow will be .
, % of the Moon is Illuminated

Today's Extremes

State Highs State Lows

Community

WunderPhotos

Upload Photos

1,779,360 photos uploaded!

WunderBlogs® & News

Nearby

Air Quality

  Air Quality AQ Index Pollutant
Not available.

Snow Depth

Station Depth Elevation

Earthquake Activity

City Distance Mag. Time & Date
Minimum magnitude displayed is 2.5.

Coastal Water Temperatures

Place Temperature

Nearby Weather Stations